Time;durP1;ratioP1;P1;durP2;ratioP2;P2;SDS_P1;SDS_P2;PMS_P1;PMS_P2;Temp;Humidity;BMP_temperature;BMP_pressure;BME280_temperature;BME280_humidity;BME280_pressure;Samples;Min_cycle;Max_cycle;Signal;HPM_P1;HPM_P2
2022/08/27 00:01:25;;;;;;;24.65;13.57;;;;;;;21.86;53.43;100054.22;5028347;28;20045;-42
2022/08/27 00:03:54;;;;;;;25.77;13.68;;;;;;;21.67;53.62;100030.91;5040845;28;20087;-41
2022/08/27 00:06:21;;;;;;;29.90;13.77;;;;;;;21.76;53.56;100056.72;5030364;28;20041;-40
2022/08/27 00:08:48;;;;;;;27.95;14.57;;;;;;;21.74;53.63;100060.44;5041987;28;20049;-43
2022/08/27 00:11:14;;;;;;;25.75;14.32;;;;;;;21.71;53.77;100063.31;5032575;28;20095;-42
2022/08/27 00:13:41;;;;;;;28.35;13.68;;;;;;;21.52;54.06;100040.00;5012270;28;20141;-42
2022/08/27 00:16:09;;;;;;;26.05;13.98;;;;;;;21.32;54.10;100000.94;5029873;28;20045;-46
2022/08/27 00:18:35;;;;;;;28.73;13.93;;;;;;;21.63;54.19;100063.88;5029918;28;20036;-41
2022/08/27 00:21:01;;;;;;;26.38;14.55;;;;;;;21.61;54.38;100054.38;5030211;28;20037;-43
2022/08/27 00:23:27;;;;;;;27.10;13.73;;;;;;;21.30;54.29;100021.41;5036772;28;20083;-42
2022/08/27 00:25:53;;;;;;;24.95;13.77;;;;;;;21.53;54.63;100063.72;5020087;28;20037;-42
2022/08/27 00:28:19;;;;;;;27.50;13.70;;;;;;;21.37;54.45;100033.19;5029341;28;20061;-43
2022/08/27 00:30:45;;;;;;;26.95;13.35;;;;;;;21.51;54.57;100064.78;5011971;28;20132;-42
2022/08/27 00:33:11;;;;;;;24.10;13.07;;;;;;;21.49;54.58;100064.91;5036166;28;20476;-42
2022/08/27 00:35:37;;;;;;;36.00;13.95;;;;;;;21.48;54.61;100063.19;5032904;28;20045;-42
2022/08/27 00:38:04;;;;;;;29.92;13.35;;;;;;;21.46;54.68;100059.81;5033395;28;20037;-43
2022/08/27 00:40:32;;;;;;;30.70;13.15;;;;;;;21.43;54.81;100062.69;5039442;28;20527;-43
2022/08/27 00:43:02;;;;;;;24.98;13.98;;;;;;;21.37;54.86;100051.72;5029582;28;20041;-41
2022/08/27 00:45:29;;;;;;;26.45;12.82;;;;;;;21.39;54.91;100063.88;5029733;28;20041;-41
2022/08/27 00:47:57;;;;;;;25.08;13.40;;;;;;;21.38;55.15;100061.34;4996171;28;20069;-43
2022/08/27 00:50:45;;;;;;;25.08;13.30;;;;;;;21.34;55.38;100066.03;5012253;28;20132;-42
2022/08/27 00:53:15;;;;;;;25.67;13.88;;;;;;;21.30;55.43;100071.66;5015926;28;20045;-41
2022/08/27 00:55:46;;;;;;;30.88;12.95;;;;;;;21.27;55.51;100064.75;5033561;28;20053;-42
2022/08/27 00:58:26;;;;;;;30.67;13.82;;;;;;;21.08;55.84;100043.22;5015930;28;20048;-42
2022/08/27 01:00:52;;;;;;;28.85;14.00;;;;;;;21.11;55.76;100045.63;5033487;28;20421;-41
2022/08/27 01:03:19;;;;;;;27.67;13.77;;;;;;;21.19;55.63;100063.63;5015275;28;20141;-41
2022/08/27 01:05:46;;;;;;;29.58;14.18;;;;;;;21.20;55.67;100067.97;5031742;28;20456;-42
2022/08/27 01:08:16;;;;;;;26.58;13.90;;;;;;;20.91;55.70;100031.22;5015624;28;20040;-42
2022/08/27 01:10:43;;;;;;;28.85;14.10;;;;;;;21.14;55.95;100064.78;5032209;28;20099;-43
2022/08/27 01:13:11;;;;;;;32.83;13.93;;;;;;;21.13;56.09;100063.09;5032173;28;20049;-42
2022/08/27 01:15:38;;;;;;;30.30;14.30;;;;;;;21.10;55.96;100067.72;5029729;28;20047;-44
2022/08/27 01:18:05;;;;;;;31.70;13.95;;;;;;;21.10;56.32;100071.22;5034019;28;20045;-42
2022/08/27 01:20:39;;;;;;;26.90;14.13;;;;;;;21.09;56.24;100074.00;5061655;28;20029;-41
2022/08/27 01:23:13;;;;;;;26.20;14.07;;;;;;;20.89;56.40;100045.47;5025989;28;20480;-42
2022/08/27 01:25:43;;;;;;;28.17;13.68;;;;;;;21.04;56.52;100069.00;5029724;28;20045;-42
2022/08/27 01:28:10;;;;;;;29.80;14.07;;;;;;;21.02;56.63;100075.38;5033237;28;20563;-41
2022/08/27 01:30:36;;;;;;;27.25;12.95;;;;;;;20.77;56.56;100036.63;5035187;28;20044;-42
2022/08/27 01:33:10;;;;;;;27.40;14.05;;;;;;;20.97;57.00;100088.94;5034557;28;20064;-41
2022/08/27 01:35:36;;;;;;;31.70;13.50;;;;;;;20.96;56.55;100081.09;5031146;28;20069;-43
2022/08/27 01:38:02;;;;;;;27.45;13.70;;;;;;;20.95;56.78;100076.75;5031833;28;20124;-41
2022/08/27 01:40:28;;;;;;;26.75;13.50;;;;;;;20.62;56.89;100027.16;5040501;28;20100;-42
2022/08/27 01:42:55;;;;;;;33.03;14.95;;;;;;;20.94;56.93;100077.72;5052840;28;20058;-42
2022/08/27 01:45:27;;;;;;;26.27;14.35;;;;;;;20.93;56.99;100071.59;5068302;28;20120;-40
2022/08/27 01:47:53;;;;;;;28.83;15.48;;;;;;;20.93;57.08;100084.81;5061375;28;20045;-44
2022/08/27 01:50:23;;;;;;;25.70;14.82;;;;;;;20.91;56.86;100085.88;5015032;28;20048;-42
2022/08/27 01:52:50;;;;;;;27.25;14.25;;;;;;;20.90;56.97;100081.53;5034636;28;20040;-42
2022/08/27 01:55:20;;;;;;;31.10;14.98;;;;;;;20.89;56.95;100085.13;5034538;28;20038;-43
2022/08/27 01:57:46;;;;;;;27.90;15.07;;;;;;;20.89;56.88;100087.75;5032581;28;20099;-43
2022/08/27 02:00:24;;;;;;;24.35;15.93;;;;;;;20.87;57.11;100093.19;5030440;28;20049;-41
2022/08/27 02:02:50;;;;;;;37.80;15.85;;;;;;;20.86;56.76;100080.91;5035568;28;20064;-44
2022/08/27 02:05:17;;;;;;;31.48;14.52;;;;;;;20.88;56.98;100091.38;5033162;28;20049;-40
2022/08/27 02:07:43;;;;;;;26.83;15.02;;;;;;;20.86;56.93;100099.41;5031808;28;20115;-41
2022/08/27 02:10:11;;;;;;;26.92;14.98;;;;;;;20.83;57.01;100089.03;4998282;28;20065;-42
2022/08/27 02:12:37;;;;;;;34.13;15.48;;;;;;;20.81;56.97;100093.59;5029859;28;20422;-42
2022/08/27 02:15:04;;;;;;;32.25;14.82;;;;;;;20.79;57.16;100102.56;5031731;28;20068;-43
2022/08/27 02:17:32;;;;;;;25.17;15.15;;;;;;;20.76;57.15;100106.28;5041167;28;20413;-43
2022/08/27 02:19:59;;;;;;;30.05;15.32;;;;;;;20.73;57.34;100095.09;5012272;28;20516;-44
2022/08/27 02:22:26;;;;;;;29.20;15.38;;;;;;;20.77;57.37;100093.94;5025637;28;20124;-43
2022/08/27 02:24:52;;;;;;;29.17;14.57;;;;;;;20.49;57.66;100060.66;5040461;28;20174;-43
2022/08/27 02:27:19;;;;;;;29.80;14.75;;;;;;;20.61;57.55;100084.44;5049883;28;20048;-42
2022/08/27 02:29:46;;;;;;;29.70;15.02;;;;;;;20.76;57.67;100102.81;5046056;28;20052;-42
2022/08/27 02:32:13;;;;;;;33.25;16.30;;;;;;;20.73;57.66;100101.22;5030869;28;20037;-42
2022/08/27 02:34:40;;;;;;;36.42;15.48;;;;;;;20.70;57.80;100099.63;5033482;28;20094;-41
2022/08/27 02:37:06;;;;;;;30.05;15.18;;;;;;;20.69;57.84;100105.88;5033630;28;20037;-42
2022/08/27 02:39:33;;;;;;;27.05;15.48;;;;;;;20.68;58.08;100111.25;5021727;28;20071;-41
2022/08/27 02:41:59;;;;;;;33.28;14.80;;;;;;;20.67;57.99;100102.47;5051709;28;20033;-41
2022/08/27 02:44:24;;;;;;;35.17;15.10;;;;;;;20.68;58.02;100100.69;5041076;28;20448;-41
2022/08/27 02:46:50;;;;;;;32.67;15.82;;;;;;;20.69;57.99;100112.94;5031184;28;20044;-42
2022/08/27 02:49:16;;;;;;;28.35;15.93;;;;;;;20.68;57.94;100098.03;5013956;28;20045;-42
2022/08/27 02:51:42;;;;;;;30.95;16.27;;;;;;;20.68;58.07;100108.59;5030945;28;20476;-41
2022/08/27 02:54:09;;;;;;;32.90;16.35;;;;;;;20.66;58.15;100108.75;5011535;28;20095;-42
2022/08/27 02:56:35;;;;;;;26.48;15.07;;;;;;;20.66;58.20;100108.75;5046282;28;20033;-40
2022/08/27 02:59:00;;;;;;;29.92;16.08;;;;;;;20.65;58.40;100114.97;5010626;28;20084;-41
2022/08/27 03:01:26;;;;;;;31.58;16.15;;;;;;;20.63;58.34;100108.09;5011480;28;20445;-41
2022/08/27 03:03:52;;;;;;;34.28;17.02;;;;;;;20.37;58.38;100077.31;5021128;28;20080;-42
2022/08/27 03:06:18;;;;;;;34.70;17.85;;;;;;;20.64;58.33;100118.56;5031532;28;20544;-43
2022/08/27 03:08:44;;;;;;;30.58;17.17;;;;;;;20.65;58.37;100116.75;5031029;28;20073;-42
2022/08/27 03:11:11;;;;;;;28.60;16.27;;;;;;;20.59;58.36;100104.81;5029945;28;20606;-43
2022/08/27 03:13:38;;;;;;;36.90;18.23;;;;;;;20.66;58.45;100114.03;5036424;28;20049;-42
2022/08/27 03:16:05;;;;;;;30.88;18.05;;;;;;;20.52;58.35;100086.84;5029180;28;20424;-40
2022/08/27 03:18:31;;;;;;;29.67;17.88;;;;;;;20.68;58.31;100112.09;5031186;28;20056;-42
2022/08/27 03:20:59;;;;;;;33.05;17.67;;;;;;;20.73;58.25;100121.53;5029726;28;20033;-41
2022/08/27 03:23:26;;;;;;;35.92;17.52;;;;;;;20.75;58.19;100116.97;5033204;28;20041;-42
2022/08/27 03:25:57;;;;;;;29.02;17.20;;;;;;;20.78;58.26;100114.13;5030461;28;20049;-42
2022/08/27 03:28:25;;;;;;;32.42;18.88;;;;;;;20.80;58.05;100120.97;5028737;28;20144;-42
2022/08/27 03:31:00;;;;;;;42.53;18.75;;;;;;;20.81;58.11;100125.31;5029025;28;20040;-42
2022/08/27 03:33:31;;;;;;;33.28;19.27;;;;;;;20.83;58.09;100120.75;5033137;28;20487;-43
2022/08/27 03:35:57;;;;;;;41.83;19.98;;;;;;;20.86;57.86;100117.91;5029132;28;20040;-43
2022/08/27 03:38:24;;;;;;;47.30;22.77;;;;;;;20.73;57.75;100099.41;5033486;28;20072;-42
2022/08/27 03:40:51;;;;;;;39.90;20.65;;;;;;;20.91;57.69;100126.38;5035910;28;20056;-42
2022/08/27 03:43:19;;;;;;;45.65;21.90;;;;;;;20.94;57.61;100127.94;5035437;28;20503;-43
2022/08/27 03:45:46;;;;;;;42.42;21.50;;;;;;;20.96;57.64;100120.75;5031786;28;20076;-42
2022/08/27 03:48:13;;;;;;;40.60;21.90;;;;;;;21.00;57.52;100124.88;5043398;28;20429;-41
2022/08/27 03:50:41;;;;;;;63.13;30.15;;;;;;;21.01;57.33;100130.06;5029249;28;20398;-42
2022/08/27 03:53:09;;;;;;;39.88;23.27;;;;;;;21.05;56.76;100126.25;5016246;28;20037;-41
2022/08/27 03:55:35;;;;;;;44.58;24.70;;;;;;;21.07;57.03;100110.28;5028943;28;20509;-41
2022/08/27 03:58:01;;;;;;;52.83;27.30;;;;;;;21.17;56.95;100127.22;5012744;28;20132;-42
2022/08/27 04:00:27;;;;;;;67.93;39.30;;;;;;;21.21;56.45;100148.97;5030281;28;20132;-42
2022/08/27 04:02:54;;;;;;;65.20;39.88;;;;;;;21.20;55.56;100131.44;5031699;28;20068;-41
2022/08/27 04:05:21;;;;;;;65.45;36.17;;;;;;;21.26;54.92;100123.06;5038825;28;20033;-41
2022/08/27 04:07:47;;;;;;;88.95;38.67;;;;;;;21.36;55.03;100138.16;5029794;28;20037;-42
2022/08/27 04:10:14;;;;;;;72.45;40.03;;;;;;;21.42;55.00;100137.72;5039554;28;20049;-44
2022/08/27 04:12:41;;;;;;;79.30;40.85;;;;;;;21.47;54.81;100132.94;5029175;28;20049;-42
2022/08/27 04:15:08;;;;;;;79.43;45.55;;;;;;;21.54;54.74;100136.00;5048972;28;20044;-43
2022/08/27 04:17:34;;;;;;;77.85;44.03;;;;;;;21.32;54.48;100093.53;5050202;28;20048;-42
2022/08/27 04:20:00;;;;;;;70.78;41.25;;;;;;;21.65;54.38;100140.50;5040347;28;20064;-42
2022/08/27 04:22:26;;;;;;;73.85;43.33;;;;;;;21.70;54.15;100141.88;5029695;28;20128;-45
2022/08/27 04:24:53;;;;;;;73.63;44.72;;;;;;;21.75;54.01;100138.88;5011813;28;20037;-42
2022/08/27 04:27:19;;;;;;;70.07;41.55;;;;;;;21.81;54.01;100146.38;5040212;28;20084;-42
2022/08/27 04:29:46;;;;;;;72.80;44.97;;;;;;;21.84;54.08;100144.34;5032910;28;20044;-42
2022/08/27 04:32:12;;;;;;;76.93;44.40;;;;;;;21.90;53.93;100137.75;5033567;28;20048;-41
2022/08/27 04:34:39;;;;;;;81.00;44.85;;;;;;;21.95;54.12;100133.84;5044427;28;20460;-42
2022/08/27 04:37:05;;;;;;;75.60;43.72;;;;;;;22.01;54.08;100137.00;5032523;28;20508;-42
2022/08/27 04:39:31;;;;;;;73.90;43.42;;;;;;;22.06;53.94;100138.34;5033360;28;20048;-42
2022/08/27 04:41:58;;;;;;;81.45;46.60;;;;;;;21.99;53.75;100115.91;5032392;28;20152;-42
2022/08/27 04:44:26;;;;;;;76.45;44.65;;;;;;;22.18;53.34;100137.44;5033330;28;20421;-43
2022/08/27 04:46:58;;;;;;;73.63;44.17;;;;;;;22.27;53.36;100136.72;5033864;28;20565;-43
2022/08/27 04:49:25;;;;;;;79.03;46.00;;;;;;;22.36;52.97;100133.38;5033800;28;20037;-42
2022/08/27 04:51:51;;;;;;;80.15;45.42;;;;;;;22.16;52.89;100082.88;5033453;28;20435;-42
2022/08/27 04:54:18;;;;;;;78.28;44.72;;;;;;;22.42;52.84;100113.53;5035235;28;20060;-43
2022/08/27 04:56:43;;;;;;;78.22;44.50;;;;;;;22.64;52.32;100131.28;5032521;28;20052;-41
2022/08/27 04:59:10;;;;;;;75.20;44.15;;;;;;;22.74;52.21;100135.78;5033227;28;20037;-41
2022/08/27 05:01:37;;;;;;;86.45;44.90;;;;;;;22.79;52.01;100122.16;5031500;28;20523;-46
2022/08/27 05:04:03;;;;;;;80.60;43.72;;;;;;;22.96;51.65;100136.75;5031314;28;20041;-44
2022/08/27 05:06:29;;;;;;;79.60;44.22;;;;;;;23.04;51.78;100132.53;5031022;28;20041;-44
2022/08/27 05:08:57;;;;;;;74.20;42.47;;;;;;;23.15;51.62;100127.22;5033749;28;20120;-43
2022/08/27 05:11:25;;;;;;;70.95;43.05;;;;;;;23.23;51.71;100132.78;5033148;28;20120;-41
2022/08/27 05:13:51;;;;;;;83.68;45.67;;;;;;;23.13;51.33;100101.81;5015689;28;20524;-41
2022/08/27 05:16:20;;;;;;;75.43;44.70;;;;;;;23.47;50.72;100129.16;5031063;28;20056;-42
2022/08/27 05:18:47;;;;;;;77.40;44.80;;;;;;;23.45;50.34;100110.69;5031713;28;20041;-42
2022/08/27 05:21:33;;;;;;;74.00;44.75;;;;;;;23.74;49.90;100124.25;5032628;28;20049;-42
2022/08/27 05:24:01;;;;;;;74.32;44.67;;;;;;;23.62;49.24;100088.09;5031206;28;20044;-44
2022/08/27 05:26:28;;;;;;;80.40;45.97;;;;;;;23.85;48.97;100112.75;5014905;28;20140;-46
2022/08/27 05:28:54;;;;;;;77.47;46.25;;;;;;;24.10;48.70;100131.00;5032863;28;20508;-43
2022/08/27 05:31:21;;;;;;;67.05;42.40;;;;;;;24.24;48.39;100135.19;5031494;28;20037;-42
2022/08/27 05:33:47;;;;;;;68.85;42.67;;;;;;;24.37;48.32;100146.47;5039131;28;20045;-42
2022/08/27 05:36:21;;;;;;;80.57;48.42;;;;;;;24.44;47.95;100153.78;5032617;28;20037;-42
2022/08/27 05:38:48;;;;;;;77.40;47.55;;;;;;;24.49;47.40;100135.63;5026621;28;20045;-43
2022/08/27 05:41:16;;;;;;;73.97;44.88;;;;;;;24.51;47.33;100108.94;5031379;28;20512;-44
2022/08/27 05:43:43;;;;;;;83.47;48.15;;;;;;;24.83;47.17;100140.75;5043922;28;20064;-45
2022/08/27 05:46:12;;;;;;;79.45;48.80;;;;;;;24.77;46.66;100120.84;5036553;28;20402;-44
2022/08/27 05:48:39;;;;;;;79.10;48.55;;;;;;;25.03;46.55;100139.03;5031199;28;20182;-43
2022/08/27 05:51:27;;;;;;;83.65;48.75;;;;;;;25.16;46.76;100140.53;5032540;28;20041;-43
2022/08/27 05:54:02;;;;;;;77.50;46.57;;;;;;;25.34;46.56;100143.38;5032145;28;20421;-43
2022/08/27 05:56:30;;;;;;;73.10;46.58;;;;;;;25.48;46.60;100137.69;5031683;28;20128;-44
2022/08/27 06:01:47;;;;;;;77.22;47.42;;;;;;;25.85;45.97;100132.59;5032505;28;20465;-42
2022/08/27 06:04:13;;;;;;;82.53;47.70;;;;;;;26.02;45.56;100131.03;5032257;28;20041;-42
2022/08/27 06:06:41;;;;;;;82.63;49.13;;;;;;;26.25;45.32;100135.13;5031138;28;20052;-42
2022/08/27 06:09:09;;;;;;;82.30;48.55;;;;;;;26.53;45.05;100133.41;5060730;28;20043;-42
2022/08/27 06:11:35;;;;;;;86.38;52.35;;;;;;;26.98;43.99;100139.78;5029900;28;20041;-42
2022/08/27 06:14:01;;;;;;;80.82;50.00;;;;;;;27.61;42.72;100129.22;5035533;28;20098;-43
2022/08/27 06:16:27;;;;;;;85.15;49.20;;;;;;;28.41;41.75;100138.16;5032015;28;20139;-44
2022/08/27 06:18:53;;;;;;;83.90;53.30;;;;;;;29.18;40.52;100145.34;5027399;28;20456;-43
2022/08/27 06:21:19;;;;;;;84.20;52.97;;;;;;;29.75;38.93;100119.59;5022708;28;20383;-44
2022/08/27 06:23:46;;;;;;;82.50;54.25;;;;;;;30.53;37.50;100136.09;5044317;28;20037;-44
2022/08/27 06:26:14;;;;;;;90.85;54.90;;;;;;;31.17;36.14;100134.31;5045216;28;20479;-45
2022/08/27 06:28:40;;;;;;;84.93;55.03;;;;;;;32.04;34.86;100141.22;5033535;28;20059;-45
2022/08/27 06:31:07;;;;;;;87.05;58.53;;;;;;;32.80;33.37;100143.81;5044025;28;20041;-44
2022/08/27 06:33:33;;;;;;;85.55;55.38;;;;;;;33.45;32.37;100140.34;5041682;28;20041;-43
2022/08/27 06:36:00;;;;;;;83.80;56.55;;;;;;;34.03;31.42;100140.19;5029492;28;20037;-46
2022/08/27 06:38:27;;;;;;;79.55;55.42;;;;;;;34.64;30.15;100134.28;5030418;28;20041;-43
2022/08/27 06:40:53;;;;;;;86.95;59.78;;;;;;;35.35;28.98;100138.47;5031433;28;20045;-43
2022/08/27 06:43:19;;;;;;;90.32;58.95;;;;;;;35.82;28.41;100139.50;5054880;28;20041;-43
2022/08/27 06:45:45;;;;;;;93.57;59.47;;;;;;;36.21;27.86;100141.47;5051487;28;20052;-44
2022/08/27 06:48:11;;;;;;;83.45;60.00;;;;;;;36.40;26.90;100132.50;5050116;28;20045;-44
2022/08/27 06:50:41;;;;;;;88.28;58.70;;;;;;;36.87;26.25;100134.97;5042506;28;20041;-43
2022/08/27 06:53:06;;;;;;;79.18;58.83;;;;;;;37.24;25.98;100138.84;5031496;28;20540;-44
2022/08/27 06:55:40;;;;;;;91.97;62.22;;;;;;;37.59;24.93;100139.31;5044545;28;20052;-46
2022/08/27 06:58:06;;;;;;;81.13;61.60;;;;;;;37.97;24.81;100133.88;5031202;28;20037;-42
2022/08/27 07:00:31;;;;;;;92.50;61.67;;;;;;;38.31;24.24;100138.06;5034029;28;20714;-43
2022/08/27 07:02:57;;;;;;;90.05;61.90;;;;;;;38.64;24.20;100126.88;5049268;28;20043;-43
2022/08/27 07:05:24;;;;;;;83.53;61.97;;;;;;;38.71;23.40;100116.78;5050791;28;20535;-43
2022/08/27 07:07:50;;;;;;;87.40;60.97;;;;;;;38.85;23.41;100129.16;5052369;28;20037;-43
2022/08/27 07:10:16;;;;;;;77.70;59.08;;;;;;;38.96;23.01;100130.34;5050065;28;20491;-42
2022/08/27 07:12:42;;;;;;;81.40;60.25;;;;;;;38.86;23.25;100127.28;5038193;28;20041;-43
2022/08/27 07:15:09;;;;;;;74.78;57.63;;;;;;;38.80;22.95;100131.75;5031945;28;20433;-44
2022/08/27 07:17:35;;;;;;;80.27;56.63;;;;;;;38.88;22.64;100128.75;5030857;28;20183;-43
2022/08/27 07:20:01;;;;;;;72.47;53.97;;;;;;;38.95;22.19;100123.25;5031160;28;20673;-46
2022/08/27 07:22:28;;;;;;;71.28;53.78;;;;;;;39.14;22.17;100124.09;5039273;28;20417;-44
2022/08/27 07:24:54;;;;;;;69.35;52.17;;;;;;;39.42;21.77;100124.34;5027573;28;20041;-42
2022/08/27 07:27:20;;;;;;;71.65;55.65;;;;;;;39.83;21.51;100133.69;5030568;28;20079;-44
2022/08/27 07:29:46;;;;;;;71.13;54.47;;;;;;;40.17;21.12;100128.31;5041196;28;20127;-42
2022/08/27 07:32:12;;;;;;;71.47;55.08;;;;;;;40.62;20.77;100128.63;5050774;28;20028;-45
2022/08/27 07:34:38;;;;;;;80.47;59.00;;;;;;;40.86;20.33;100125.88;5041996;28;20519;-44
2022/08/27 07:37:04;;;;;;;73.05;54.80;;;;;;;41.12;19.87;100135.47;5028848;28;20057;-45
2022/08/27 07:39:29;;;;;;;74.13;55.22;;;;;;;41.27;19.97;100119.41;5040050;28;20052;-48
2022/08/27 07:44:41;;;;;;;73.45;55.05;;;;;;;41.43;19.71;100126.81;5030703;28;20518;-43
2022/08/27 07:47:07;;;;;;;71.38;52.55;;;;;;;41.16;19.17;100121.09;5030374;28;20064;-42
2022/08/27 07:49:34;;;;;;;75.07;53.97;;;;;;;41.26;19.34;100131.38;5029482;28;20052;-45
2022/08/27 07:52:03;;;;;;;74.97;57.47;;;;;;;41.42;19.25;100123.25;5027895;28;20033;-43
2022/08/27 07:54:28;;;;;;;71.72;55.53;;;;;;;41.57;19.27;100121.91;5030150;28;20387;-43
2022/08/27 07:56:54;;;;;;;77.13;54.50;;;;;;;41.72;18.83;100122.19;5030092;28;20580;-44
2022/08/27 07:59:21;;;;;;;66.47;53.05;;;;;;;41.94;18.51;100123.19;5046924;28;20064;-43
2022/08/27 08:01:47;;;;;;;79.22;54.42;;;;;;;42.24;18.40;100128.34;5029667;28;20041;-43
2022/08/27 08:04:14;;;;;;;66.72;50.50;;;;;;;42.51;18.06;100125.75;5028874;28;20054;-42
2022/08/27 08:06:40;;;;;;;55.00;46.15;;;;;;;42.55;17.63;100124.19;5030241;28;20064;-42
2022/08/27 08:09:06;;;;;;;66.00;47.92;;;;;;;42.21;17.47;100128.81;5028926;28;20038;-47
2022/08/27 08:11:33;;;;;;;58.53;45.70;;;;;;;42.24;17.68;100122.88;5029740;28;20086;-45
2022/08/27 08:14:00;;;;;;;57.33;40.10;;;;;;;41.99;16.99;100122.44;5029118;28;20042;-45
2022/08/27 08:16:26;;;;;;;57.92;42.40;;;;;;;42.17;16.61;100117.56;5044634;28;20133;-44
2022/08/27 08:18:52;;;;;;;45.90;38.03;;;;;;;42.16;17.07;100113.19;5029703;28;20072;-45
2022/08/27 08:21:18;;;;;;;49.70;37.90;;;;;;;41.92;16.72;100106.22;5027073;28;20104;-46
2022/08/27 08:23:45;;;;;;;50.50;38.22;;;;;;;41.51;17.00;100092.88;5028502;28;20037;-45
2022/08/27 08:26:11;;;;;;;;;;;;;;;41.39;17.14;100114.75;5026232;28;20041;-46
2022/08/27 08:28:38;;;;;;;43.33;31.90;;;;;;;40.95;16.87;100095.25;5028794;28;20363;-44
2022/08/27 08:31:04;;;;;;;38.05;32.28;;;;;;;40.94;16.75;100107.22;5032360;28;20045;-43
2022/08/27 08:33:30;;;;;;;44.47;30.52;;;;;;;40.93;16.59;100100.09;5027840;28;20425;-49
2022/08/27 08:36:09;;;;;;;40.88;32.80;;;;;;;41.02;16.53;100103.31;5037554;28;20036;-43
2022/08/27 08:38:36;;;;;;;41.05;31.88;;;;;;;41.34;15.99;100104.56;5038522;28;20037;-44
2022/08/27 08:41:02;;;;;;;44.05;33.85;;;;;;;41.73;15.71;100093.81;5038044;28;20049;-44
2022/08/27 08:43:36;;;;;;;43.73;34.77;;;;;;;42.19;15.69;100096.25;5040501;28;20045;-45
2022/08/27 08:46:16;;;;;;;49.28;37.10;;;;;;;43.01;15.29;100096.41;5034572;28;20045;-47
2022/08/27 08:48:45;;;;;;;44.13;33.25;;;;;;;43.55;14.55;100091.03;5043197;28;20045;-44
2022/08/27 08:51:20;;;;;;;48.78;36.67;;;;;;;43.75;14.10;100088.50;5028408;28;20414;-43
2022/08/27 08:53:56;;;;;;;45.17;36.17;;;;;;;44.30;14.34;100090.91;5031699;28;20037;-45
2022/08/27 08:56:30;;;;;;;43.42;32.25;;;;;;;44.63;13.62;100091.66;5029142;28;20132;-44
2022/08/27 08:59:04;;;;;;;29.13;23.90;;;;;;;44.92;12.88;100092.09;5029256;28;20071;-44
2022/08/27 09:01:30;;;;;;;47.38;35.83;;;;;;;45.05;13.13;100091.66;5028949;28;20641;-44
2022/08/27 09:04:01;;;;;;;41.22;33.45;;;;;;;45.73;13.04;100073.97;5029389;28;20041;-47
2022/08/27 09:06:39;;;;;;;29.42;25.35;;;;;;;46.05;12.54;100083.88;5028772;28;20046;-44
2022/08/27 09:09:20;;;;;;;33.92;28.58;;;;;;;46.43;12.13;100080.53;5034946;28;20048;-42
2022/08/27 09:12:00;;;;;;;35.60;28.58;;;;;;;47.00;11.78;100084.81;5031819;28;20068;-43
2022/08/27 09:14:33;;;;;;;30.17;23.60;;;;;;;47.18;11.46;100084.16;5042512;28;20045;-46
2022/08/27 09:17:03;;;;;;;39.58;27.35;;;;;;;47.71;10.99;100081.66;5038242;28;20527;-47
2022/08/27 09:19:29;;;;;;;23.20;19.33;;;;;;;47.53;10.75;100080.38;5036123;28;20678;-45
2022/08/27 09:22:28;;;;;;;26.30;21.17;;;;;;;47.73;10.46;100082.22;5037676;28;20029;-42
2022/08/27 09:24:59;;;;;;;28.15;23.15;;;;;;;48.07;10.38;100071.16;5038582;28;20421;-45
2022/08/27 09:27:25;;;;;;;25.25;22.60;;;;;;;47.85;10.32;100046.78;5033635;28;20068;-44
2022/08/27 09:29:53;;;;;;;25.40;21.50;;;;;;;47.62;10.37;100070.41;5042787;28;20531;-46
2022/08/27 09:32:30;;;;;;;32.08;26.08;;;;;;;47.53;10.92;100072.94;5028595;28;20037;-46
2022/08/27 09:35:02;;;;;;;19.65;17.00;;;;;;;47.63;10.26;100072.09;5033929;28;20044;-43
2022/08/27 09:37:39;;;;;;;26.05;17.52;;;;;;;46.29;10.35;100069.28;5038491;28;20049;-43
2022/08/27 09:40:08;;;;;;;25.10;19.07;;;;;;;46.15;10.91;100059.13;5041061;28;20055;-46
2022/08/27 09:42:38;;;;;;;25.55;19.27;;;;;;;46.60;10.96;100067.31;5033444;28;20288;-42
2022/08/27 09:45:08;;;;;;;26.67;23.83;;;;;;;47.18;10.78;100062.13;5035576;28;20041;-49
2022/08/27 09:47:47;;;;;;;31.67;23.67;;;;;;;47.49;10.69;100066.34;5036884;28;20045;-42
2022/08/27 09:50:17;;;;;;;19.15;17.20;;;;;;;47.78;10.46;100065.63;5036720;28;20094;-44
2022/08/27 09:52:55;;;;;;;28.42;16.42;;;;;;;47.87;10.37;100063.88;5036440;28;20044;-47
2022/08/27 09:55:35;;;;;;;21.55;19.35;;;;;;;48.10;10.15;100065.09;5045857;28;20033;-42
2022/08/27 09:58:04;;;;;;;31.17;25.00;;;;;;;48.47;10.25;100068.03;5032125;28;20045;-47
2022/08/27 10:00:38;;;;;;;23.65;21.17;;;;;;;48.79;10.16;100067.38;5034112;28;20063;-47
2022/08/27 10:03:06;;;;;;;24.33;19.98;;;;;;;49.02;9.91;100074.00;5051036;28;20048;-44
2022/08/27 10:05:37;;;;;;;23.00;16.05;;;;;;;49.19;9.87;100075.16;5041963;28;20071;-45
2022/08/27 10:08:24;;;;;;;21.42;16.95;;;;;;;48.76;9.53;100063.28;5034911;28;20083;-47
2022/08/27 10:10:59;;;;;;;17.95;16.25;;;;;;;48.32;9.81;100060.69;5047065;28;20041;-42
2022/08/27 10:13:49;;;;;;;19.63;17.63;;;;;;;47.74;10.10;100053.53;5042144;28;20033;-43
2022/08/27 10:16:14;;;;;;;24.05;19.05;;;;;;;47.34;10.39;100055.44;5031415;28;20060;-48
2022/08/27 10:18:58;;;;;;;23.17;17.77;;;;;;;47.15;10.38;100047.00;5039308;28;20045;-45
2022/08/27 10:21:40;;;;;;;21.38;18.52;;;;;;;47.00;10.47;100044.34;5032278;28;20056;-47
2022/08/27 10:24:21;;;;;;;21.73;19.20;;;;;;;46.55;10.83;100036.22;5035138;28;20099;-46
2022/08/27 10:27:23;;;;;;;22.98;19.05;;;;;;;46.87;10.81;100046.84;5036984;28;20110;-46
2022/08/27 10:29:56;;;;;;;24.58;20.95;;;;;;;47.26;10.89;100039.50;5041413;28;20037;-44
2022/08/27 10:32:40;;;;;;;29.95;26.95;;;;;;;47.56;10.88;100043.97;5023495;28;20150;-43
2022/08/27 10:35:12;;;;;;;22.38;19.05;;;;;;;47.16;10.97;100031.28;5031337;28;20033;-45
2022/08/27 10:37:59;;;;;;;25.60;17.73;;;;;;;46.62;11.15;100045.03;5019979;28;20413;-52
2022/08/27 10:40:27;;;;;;;20.27;17.00;;;;;;;45.47;11.74;100040.16;5029427;28;20037;-49
2022/08/27 10:43:47;;;;;;;24.40;18.35;;;;;;;45.26;11.49;100038.44;5026805;28;20091;-47
2022/08/27 10:46:31;;;;;;;21.77;19.58;;;;;;;44.89;11.90;100029.50;4990378;28;20046;-45
2022/08/27 10:49:05;;;;;;;24.30;18.83;;;;;;;44.35;12.41;100032.53;5026373;28;20049;-47
2022/08/27 10:51:40;;;;;;;23.92;20.45;;;;;;;43.93;12.39;100021.53;5030991;28;20072;-45
2022/08/27 10:54:30;;;;;;;19.52;15.10;;;;;;;42.95;12.78;100009.03;5028253;28;20044;-47
2022/08/27 10:57:00;;;;;;;13.38;11.98;;;;;;;41.39;13.81;100020.03;5025523;28;20048;-46
2022/08/27 10:59:45;;;;;;;20.40;12.98;;;;;;;40.02;14.52;100027.13;5026737;28;20037;-46
2022/08/27 11:02:22;;;;;;;10.85;9.73;;;;;;;38.91;15.45;100018.69;5033589;28;20089;-48
2022/08/27 11:04:51;;;;;;;16.23;11.87;;;;;;;38.50;15.78;100009.34;5028764;28;20091;-44
2022/08/27 11:07:22;;;;;;;14.45;10.88;;;;;;;38.85;15.89;100014.13;5015727;28;20291;-47
2022/08/27 11:09:53;;;;;;;16.80;10.55;;;;;;;39.23;15.29;100008.44;5012620;28;20068;-48
2022/08/27 11:12:32;;;;;;;13.35;11.25;;;;;;;39.28;15.65;100006.69;5029049;28;20863;-49
2022/08/27 11:15:07;;;;;;;14.55;11.60;;;;;;;38.61;15.87;100006.91;5040842;28;20071;-45
2022/08/27 11:17:49;;;;;;;13.88;11.32;;;;;;;39.65;15.47;99996.50;5034974;28;20049;-44
2022/08/27 11:20:21;;;;;;;17.13;12.20;;;;;;;41.17;14.80;100015.50;5028691;28;20076;-45
2022/08/27 11:22:54;;;;;;;15.50;11.20;;;;;;;41.69;14.21;99999.78;5030626;28;20040;-44
2022/08/27 11:25:20;;;;;;;13.15;11.45;;;;;;;42.23;13.96;100009.13;5042532;28;20577;-45